createdAt,value
2019-03-12T00:01:41.289Z,0.70
2019-03-12T00:04:12.386Z,0.70
2019-03-12T00:06:43.695Z,0.70
2019-03-12T00:09:14.505Z,0.70
2019-03-12T00:11:44.570Z,0.70
2019-03-12T00:14:17.806Z,0.60
2019-03-12T00:16:49.182Z,0.60
2019-03-12T00:19:20.286Z,0.50
2019-03-12T00:21:48.703Z,0.50
2019-03-12T00:24:20.190Z,0.40
2019-03-12T00:26:51.297Z,0.40
2019-03-12T00:29:19.709Z,0.40
2019-03-12T00:31:52.486Z,0.40
2019-03-12T00:34:23.663Z,0.40
2019-03-12T00:36:55.079Z,0.40
2019-03-12T00:39:26.440Z,0.40
2019-03-12T00:41:57.641Z,0.40
2019-03-12T00:44:28.906Z,0.40
2019-03-12T00:47:01.866Z,0.40
2019-03-12T00:49:30.298Z,0.50
2019-03-12T00:52:03.137Z,0.50
2019-03-12T00:54:31.559Z,0.50
2019-03-12T00:57:02.904Z,0.50
2019-03-12T00:59:31.600Z,0.50
2019-03-12T01:02:02.930Z,0.60
2019-03-12T01:04:31.353Z,0.60
2019-03-12T01:07:02.457Z,0.50
2019-03-12T01:09:30.883Z,0.50
2019-03-12T01:11:59.293Z,0.50
2019-03-12T01:14:33.070Z,0.40
2019-03-12T01:17:04.237Z,0.40
2019-03-12T01:19:32.667Z,0.40
2019-03-12T01:22:01.080Z,0.40
2019-03-12T01:24:32.162Z,0.40
2019-03-12T01:27:05.554Z,0.40
2019-03-12T01:29:39.705Z,0.50
2019-03-12T01:32:08.110Z,0.50
2019-03-12T01:34:39.179Z,0.50
2019-03-12T01:37:12.079Z,0.50
2019-03-12T01:39:40.516Z,0.60
2019-03-12T01:42:11.965Z,0.60
2019-03-12T01:44:43.166Z,0.60
2019-03-12T01:47:17.238Z,0.60
2019-03-12T01:49:47.198Z,0.60
2019-03-12T01:52:15.927Z,0.60
2019-03-12T01:54:44.490Z,0.60
2019-03-12T01:57:15.865Z,0.60
2019-03-12T01:59:47.001Z,0.70
2019-03-12T02:02:15.413Z,0.70
2019-03-12T02:04:51.098Z,0.60
2019-03-12T02:07:24.881Z,0.70
2019-03-12T02:10:00.553Z,0.70
2019-03-12T02:12:32.083Z,0.70
2019-03-12T02:15:10.848Z,0.70
2019-03-12T02:17:42.731Z,0.70
2019-03-12T02:20:15.524Z,0.70
2019-03-12T02:22:46.594Z,0.70
2019-03-12T02:25:17.466Z,0.70
2019-03-12T02:27:45.868Z,0.70
2019-03-12T02:30:18.319Z,0.70
2019-03-12T02:32:49.661Z,0.70
2019-03-12T02:35:19.717Z,0.70
2019-03-12T02:38:03.437Z,0.80
2019-03-12T02:40:34.844Z,0.80
2019-03-12T02:43:06.182Z,0.80
2019-03-12T02:45:43.337Z,0.80
2019-03-12T02:48:15.142Z,0.80
2019-03-12T02:50:46.431Z,0.70
2019-03-12T02:53:16.441Z,0.70
2019-03-12T02:55:47.829Z,0.70
2019-03-12T02:58:21.742Z,0.70
2019-03-12T03:00:51.803Z,0.70
2019-03-12T03:03:21.851Z,0.70
2019-03-12T03:06:13.163Z,0.70
2019-03-12T03:08:47.362Z,0.70
2019-03-12T03:11:21.274Z,0.70
2019-03-12T03:13:53.967Z,0.60
2019-03-12T03:16:24.187Z,0.70
2019-03-12T03:18:56.841Z,0.70
2019-03-12T03:21:32.226Z,0.60
2019-03-12T03:24:08.538Z,0.60
2019-03-12T03:26:42.971Z,0.70
2019-03-12T03:29:20.303Z,0.70
2019-03-12T03:31:49.783Z,0.70
2019-03-12T03:34:27.318Z,0.70
2019-03-12T03:37:01.400Z,0.70
2019-03-12T03:39:35.514Z,0.70
2019-03-12T03:42:11.768Z,0.70
2019-03-12T03:44:45.355Z,0.70
2019-03-12T03:47:13.774Z,0.70
2019-03-12T03:49:44.924Z,0.60
2019-03-12T03:52:18.946Z,0.60
2019-03-12T03:54:50.864Z,0.60
2019-03-12T03:57:19.870Z,0.60
2019-03-12T03:59:49.811Z,0.60
2019-03-12T04:02:20.745Z,0.60
2019-03-12T04:04:52.137Z,0.60
2019-03-12T04:07:20.854Z,0.60
2019-03-12T04:09:49.262Z,0.60
2019-03-12T04:12:20.614Z,0.60
2019-03-12T04:14:49.034Z,0.60
2019-03-12T04:17:22.982Z,0.60
2019-03-12T04:19:51.405Z,0.60
2019-03-12T04:22:19.815Z,0.60
2019-03-12T04:24:51.150Z,0.60
2019-03-12T04:27:19.553Z,0.70
2019-03-12T04:29:58.385Z,0.70
2019-03-12T04:32:28.085Z,0.70
2019-03-12T04:34:59.275Z,0.70
2019-03-12T04:37:32.045Z,0.70
2019-03-12T04:40:00.469Z,0.70
2019-03-12T04:42:30.521Z,0.70
2019-03-12T04:44:58.950Z,0.70
2019-03-12T04:47:33.085Z,0.70
2019-03-12T04:50:05.681Z,0.70
2019-03-12T04:52:34.095Z,0.70
2019-03-12T04:55:02.907Z,0.70
2019-03-12T04:57:40.045Z,0.60
2019-03-12T05:00:14.318Z,0.60
2019-03-12T05:02:48.814Z,0.60
2019-03-12T05:05:21.842Z,0.60
2019-03-12T05:07:53.211Z,0.60
2019-03-12T05:10:21.640Z,0.60
2019-03-12T05:13:03.227Z,0.60
2019-03-12T05:15:37.922Z,0.60
2019-03-12T05:18:09.128Z,0.60
2019-03-12T05:20:39.187Z,0.60
2019-03-12T05:23:10.291Z,0.60
2019-03-12T05:25:48.586Z,0.70
2019-03-12T05:28:19.781Z,0.70
2019-03-12T05:30:52.812Z,0.70
2019-03-12T05:33:26.869Z,0.70
2019-03-12T05:36:06.486Z,0.60
2019-03-12T05:38:34.889Z,0.60
2019-03-12T05:41:03.818Z,0.60
2019-03-12T05:43:32.229Z,0.60
2019-03-12T05:46:00.942Z,0.60
2019-03-12T05:48:30.394Z,0.60
2019-03-12T05:50:58.846Z,0.60
2019-03-12T05:53:30.329Z,0.60
2019-03-12T05:56:05.763Z,0.70
2019-03-12T05:58:37.586Z,0.70
2019-03-12T06:01:09.549Z,0.70
2019-03-12T06:03:40.890Z,0.80
2019-03-12T06:06:09.334Z,0.80
2019-03-12T06:08:43.726Z,0.80
2019-03-12T06:11:15.707Z,0.80
2019-03-12T06:13:50.109Z,0.90
2019-03-12T06:16:25.897Z,0.90
2019-03-12T06:18:54.311Z,0.90
2019-03-12T06:21:26.551Z,1.00
2019-03-12T06:23:57.878Z,0.90
2019-03-12T06:26:30.594Z,1.00
2019-03-12T06:29:03.429Z,1.00
2019-03-12T06:31:35.726Z,1.00
2019-03-12T06:34:08.729Z,1.00
2019-03-12T06:36:50.765Z,1.00
2019-03-12T06:39:43.044Z,1.00
2019-03-12T06:42:19.308Z,1.00
2019-03-12T06:45:04.593Z,1.10
2019-03-12T06:47:34.654Z,1.10
2019-03-12T06:50:24.768Z,1.10
2019-03-12T06:53:00.805Z,1.20
2019-03-12T06:55:30.865Z,1.20
2019-03-12T06:58:17.697Z,1.30
2019-03-12T07:00:47.748Z,1.40
2019-03-12T07:03:17.828Z,1.50
2019-03-12T07:06:05.954Z,1.60
2019-03-12T07:08:52.201Z,1.70
2019-03-12T07:11:40.210Z,1.80
2019-03-12T07:14:33.926Z,1.90
2019-03-12T07:17:18.598Z,2.00
2019-03-12T07:19:57.045Z,2.00
2019-03-12T07:22:45.207Z,2.00
2019-03-12T07:25:26.985Z,2.00
2019-03-12T07:27:57.050Z,2.10
2019-03-12T07:30:33.033Z,2.20
2019-03-12T07:33:05.973Z,2.30
2019-03-12T07:35:52.253Z,2.40
2019-03-12T07:38:22.337Z,2.50
2019-03-12T07:41:23.605Z,2.50
2019-03-12T07:43:54.234Z,2.40
2019-03-12T07:46:24.291Z,2.50
2019-03-12T07:48:57.054Z,2.50
2019-03-12T07:51:39.673Z,2.50
2019-03-12T07:54:15.578Z,2.50
2019-03-12T07:56:54.316Z,2.60
2019-03-12T07:59:36.173Z,2.60
2019-03-12T08:02:22.572Z,2.60
2019-03-12T08:05:01.374Z,2.50
2019-03-12T08:07:37.184Z,2.50
2019-03-12T08:10:26.642Z,2.40
2019-03-12T08:13:05.678Z,2.40
2019-03-12T08:15:56.818Z,2.40
2019-03-12T08:18:45.705Z,2.30
2019-03-12T08:21:22.305Z,2.20
2019-03-12T08:23:59.346Z,2.20
2019-03-12T08:26:37.941Z,2.30
2019-03-12T08:29:13.397Z,2.50
2019-03-12T08:31:46.133Z,2.50
2019-03-12T08:34:19.000Z,2.60
2019-03-12T08:36:49.062Z,2.70
2019-03-12T08:39:25.132Z,2.70
2019-03-12T08:41:58.197Z,2.70
2019-03-12T08:44:30.974Z,2.60
2019-03-12T08:47:15.998Z,2.60
2019-03-12T08:49:57.453Z,2.70
2019-03-12T08:52:34.066Z,2.90
2019-03-12T08:55:20.834Z,3.20
2019-03-12T08:58:07.204Z,3.50
2019-03-12T09:00:44.133Z,3.70
2019-03-12T09:03:23.057Z,3.90
2019-03-12T09:06:09.623Z,4.20
2019-03-12T09:08:42.673Z,4.60
2019-03-12T09:11:19.367Z,5.20
2019-03-12T09:13:54.933Z,7.30
2019-03-12T09:16:30.995Z,9.80
2019-03-12T09:19:15.793Z,10.70
2019-03-12T09:22:04.849Z,10.10
2019-03-12T09:24:56.865Z,9.20
2019-03-12T09:27:32.925Z,9.20
2019-03-12T09:30:21.015Z,10.00
2019-03-12T09:33:00.242Z,11.90
2019-03-12T09:35:38.460Z,15.00
2019-03-12T09:38:11.513Z,17.40
2019-03-12T09:40:46.854Z,18.60
2019-03-12T09:43:36.289Z,19.10
2019-03-12T09:46:12.527Z,19.90
2019-03-12T09:49:00.832Z,21.00
2019-03-12T09:51:33.649Z,22.20
2019-03-12T09:54:15.712Z,23.40
2019-03-12T09:56:58.147Z,22.70
2019-03-12T10:00:15.002Z,22.40
2019-03-12T10:02:36.717Z,21.90
2019-03-12T10:05:23.663Z,21.40
2019-03-12T10:08:05.093Z,20.90
2019-03-12T10:10:54.390Z,20.50
2019-03-12T10:13:33.725Z,20.10
2019-03-12T10:16:20.507Z,20.10
2019-03-12T10:18:50.585Z,19.90
2019-03-12T10:21:24.376Z,19.90
2019-03-12T10:23:57.258Z,19.80
2019-03-12T10:26:27.316Z,19.10
2019-03-12T10:28:57.721Z,19.00
2019-03-12T10:31:47.141Z,19.70
2019-03-12T10:34:29.258Z,20.50
2019-03-12T10:36:54.061Z,20.80
2019-03-12T10:40:04.835Z,20.70
2019-03-12T10:42:46.025Z,20.10
2019-03-12T10:45:24.962Z,18.40
2019-03-12T10:48:01.106Z,18.10
2019-03-12T10:50:31.241Z,18.30
2019-03-12T10:52:59.827Z,19.10
2019-03-12T10:55:31.217Z,19.20
2019-03-12T10:58:01.176Z,18.80
2019-03-12T11:00:32.755Z,18.10
2019-03-12T11:03:03.966Z,18.00
2019-03-12T11:05:45.253Z,17.10
2019-03-12T11:08:11.782Z,16.90
2019-03-12T11:10:40.309Z,17.20
2019-03-12T11:13:14.490Z,18.00
2019-03-12T11:15:58.471Z,19.10
2019-03-12T11:18:32.777Z,20.00
2019-03-12T11:21:05.447Z,21.00
2019-03-12T11:23:33.855Z,21.10
2019-03-12T11:26:08.123Z,20.80
2019-03-12T11:28:38.378Z,20.50
2019-03-12T11:31:09.505Z,20.00
2019-03-12T11:33:37.945Z,19.10
2019-03-12T11:36:08.845Z,17.20
2019-03-12T11:38:39.837Z,15.70
2019-03-12T11:41:08.276Z,14.80
2019-03-12T11:43:42.478Z,14.50
2019-03-12T11:46:10.905Z,13.80
2019-03-12T11:48:40.958Z,12.80
2019-03-12T11:51:09.386Z,12.00
2019-03-12T11:53:38.039Z,11.30
2019-03-12T11:56:10.679Z,11.30
2019-03-12T11:58:37.125Z,11.60
2019-03-12T12:01:07.941Z,12.40
2019-03-12T12:03:44.421Z,13.30
2019-03-12T12:06:16.053Z,14.20
2019-03-12T12:08:46.174Z,15.10
2019-03-12T12:11:14.586Z,15.60
2019-03-12T12:13:49.232Z,15.90
2019-03-12T12:16:20.409Z,16.30
2019-03-12T12:18:50.462Z,16.50
2019-03-12T12:21:29.004Z,15.90
2019-03-12T12:23:54.882Z,15.10
2019-03-12T12:26:29.229Z,14.30
2019-03-12T12:28:59.535Z,13.70
2019-03-12T12:31:30.871Z,13.00
2019-03-12T12:34:14.261Z,12.40
2019-03-12T12:36:42.780Z,11.90
2019-03-12T12:39:18.338Z,11.20
2019-03-12T12:41:44.066Z,10.80
2019-03-12T12:44:21.875Z,10.30
2019-03-12T12:46:54.813Z,9.80
2019-03-12T12:49:23.226Z,9.50
2019-03-12T12:51:52.217Z,9.70
2019-03-12T12:54:25.030Z,10.10
2019-03-12T12:56:56.427Z,10.40
2019-03-12T12:59:24.855Z,10.50
2019-03-12T13:01:56.218Z,10.50
2019-03-12T13:04:27.588Z,10.10
2019-03-12T13:06:57.638Z,9.90
2019-03-12T13:09:26.076Z,9.50
2019-03-12T13:11:57.245Z,9.50
2019-03-12T13:14:25.674Z,9.40
2019-03-12T13:16:55.729Z,9.30
2019-03-12T13:19:26.678Z,9.20
2019-03-12T13:22:00.913Z,9.20
2019-03-12T13:24:54.062Z,9.10
2019-03-12T13:27:27.114Z,8.80
2019-03-12T13:29:58.606Z,8.60
2019-03-12T13:32:35.208Z,8.40
2019-03-12T13:35:05.230Z,8.10
2019-03-12T13:37:33.680Z,7.90
2019-03-12T13:40:03.750Z,7.70
2019-03-12T13:42:35.234Z,7.50
2019-03-12T13:45:04.771Z,7.50
2019-03-12T13:47:36.304Z,7.40
2019-03-12T13:50:08.040Z,7.40
2019-03-12T13:52:38.201Z,7.30
2019-03-12T13:55:09.910Z,7.40
2019-03-12T13:57:43.144Z,7.40
2019-03-12T14:00:21.927Z,7.50
2019-03-12T14:02:56.494Z,7.60
2019-03-12T14:05:26.614Z,7.50
2019-03-12T14:07:57.725Z,7.50
2019-03-12T14:10:30.038Z,7.50
2019-03-12T14:13:01.264Z,7.50
2019-03-12T14:15:38.996Z,7.20
2019-03-12T14:18:08.439Z,7.00
2019-03-12T14:20:46.260Z,6.80
2019-03-12T14:23:29.163Z,6.70
2019-03-12T14:26:00.777Z,6.60
2019-03-12T14:28:37.905Z,6.50
2019-03-12T14:31:08.973Z,6.50
2019-03-12T14:33:54.926Z,6.50
2019-03-12T14:36:24.121Z,6.50
2019-03-12T14:39:01.066Z,6.60
2019-03-12T14:41:33.863Z,6.60
2019-03-12T14:44:02.501Z,6.60
2019-03-12T14:46:33.487Z,6.60
2019-03-12T14:49:04.720Z,6.70
2019-03-12T14:51:40.375Z,6.80
2019-03-12T14:54:10.743Z,6.70
2019-03-12T14:56:42.003Z,6.70
2019-03-12T14:59:12.004Z,6.70
2019-03-12T15:01:41.630Z,6.70
2019-03-12T15:04:15.474Z,6.70
2019-03-12T15:06:43.910Z,6.80
2019-03-12T15:09:17.417Z,6.90
2019-03-12T15:11:50.454Z,6.90
2019-03-12T15:14:24.344Z,6.80
2019-03-12T15:17:04.642Z,6.80
2019-03-12T15:19:33.060Z,6.80
2019-03-12T15:22:04.375Z,6.80
2019-03-12T15:24:35.882Z,6.80
2019-03-12T15:27:02.925Z,6.70
2019-03-12T15:29:31.336Z,6.60
2019-03-12T15:32:04.448Z,6.50
2019-03-12T15:34:36.901Z,6.50
2019-03-12T15:37:10.085Z,6.40
2019-03-12T15:39:41.149Z,6.40
2019-03-12T15:42:12.591Z,6.40
2019-03-12T15:44:44.842Z,6.40
2019-03-12T15:47:14.914Z,6.30
2019-03-12T15:49:43.325Z,6.30
2019-03-12T15:52:12.143Z,6.20
2019-03-12T15:54:42.105Z,6.20
2019-03-12T15:57:13.705Z,6.10
2019-03-12T15:59:44.915Z,6.10
2019-03-12T16:02:13.510Z,6.10
2019-03-12T16:04:46.275Z,6.10
2019-03-12T16:07:14.684Z,6.10
2019-03-12T16:09:44.737Z,6.00
2019-03-12T16:12:18.886Z,5.90
2019-03-12T16:14:47.614Z,5.90
2019-03-12T16:17:21.692Z,5.80
2019-03-12T16:19:52.960Z,5.80
2019-03-12T16:22:24.085Z,5.70
2019-03-12T16:24:54.151Z,5.70
2019-03-12T16:27:22.654Z,5.60
2019-03-12T16:29:54.362Z,5.60
2019-03-12T16:32:25.724Z,5.60
2019-03-12T16:34:54.153Z,5.50
2019-03-12T16:37:26.738Z,5.50
2019-03-12T16:39:57.961Z,5.50
2019-03-12T16:42:35.196Z,5.40
2019-03-12T16:45:07.341Z,5.40
2019-03-12T16:47:43.819Z,5.30
2019-03-12T16:50:14.333Z,5.30
2019-03-12T16:52:45.434Z,5.30
2019-03-12T16:55:16.258Z,5.20
2019-03-12T16:57:45.725Z,5.20
2019-03-12T17:00:18.469Z,5.10
2019-03-12T17:02:47.017Z,5.10
2019-03-12T17:05:18.340Z,5.00
2019-03-12T17:07:46.870Z,4.90
2019-03-12T17:10:19.611Z,4.90
2019-03-12T17:12:50.506Z,4.90
2019-03-12T17:15:38.000Z,4.80
2019-03-12T17:18:15.783Z,4.80
2019-03-12T17:20:45.897Z,4.80
2019-03-12T17:23:25.272Z,4.70
2019-03-12T17:25:56.529Z,4.70
2019-03-12T17:28:27.956Z,4.60
2019-03-12T17:30:56.410Z,4.60
2019-03-12T17:33:26.519Z,4.60
2019-03-12T17:35:55.176Z,4.60
2019-03-12T17:38:23.954Z,4.50
2019-03-12T17:40:52.371Z,4.50
2019-03-12T17:43:22.422Z,4.50
2019-03-12T17:45:55.242Z,4.50
2019-03-12T17:48:23.812Z,4.50
2019-03-12T17:50:56.763Z,4.50
2019-03-12T17:53:28.191Z,4.40
2019-03-12T17:56:00.700Z,4.40
2019-03-12T17:58:38.099Z,4.40
2019-03-12T18:01:09.413Z,4.40
2019-03-12T18:03:39.595Z,4.40
2019-03-12T18:06:16.806Z,4.30
2019-03-12T18:08:51.029Z,4.30
2019-03-12T18:11:19.509Z,4.30
2019-03-12T18:13:50.595Z,4.20
2019-03-12T18:16:21.034Z,4.20
2019-03-12T18:18:55.216Z,4.20
2019-03-12T18:21:23.686Z,4.20
2019-03-12T18:23:52.090Z,4.20
2019-03-12T18:26:20.514Z,4.20
2019-03-12T18:28:52.541Z,4.30
2019-03-12T18:31:20.958Z,4.30
2019-03-12T18:33:54.769Z,4.20
2019-03-12T18:36:23.276Z,4.20
2019-03-12T18:38:57.533Z,4.30
2019-03-12T18:41:27.937Z,4.30
2019-03-12T18:43:57.550Z,4.20
2019-03-12T18:46:26.037Z,4.20
2019-03-12T18:48:54.470Z,4.20
2019-03-12T18:51:31.926Z,4.30
2019-03-12T18:54:00.390Z,4.30
2019-03-12T18:56:28.827Z,4.30
2019-03-12T18:58:57.247Z,4.20
2019-03-12T19:01:26.233Z,4.20
2019-03-12T19:04:00.721Z,4.20
2019-03-12T19:06:29.366Z,4.20
2019-03-12T19:09:05.251Z,4.20
2019-03-12T19:11:40.156Z,4.20
2019-03-12T19:14:08.574Z,4.20
2019-03-12T19:16:42.613Z,4.20
2019-03-12T19:19:11.057Z,4.10
2019-03-12T19:21:40.721Z,4.00
2019-03-12T19:24:11.886Z,4.00
2019-03-12T19:26:41.294Z,3.90
2019-03-12T19:29:14.216Z,3.90
2019-03-12T19:31:47.270Z,3.80
2019-03-12T19:34:17.393Z,3.80
2019-03-12T19:36:53.130Z,3.80
2019-03-12T19:39:27.275Z,3.80
2019-03-12T19:41:57.765Z,3.80
2019-03-12T19:44:27.548Z,3.80
2019-03-12T19:46:57.637Z,3.80
2019-03-12T19:49:27.705Z,3.90
2019-03-12T19:51:59.261Z,3.90
2019-03-12T19:54:33.110Z,3.90
2019-03-12T19:57:04.835Z,3.90
2019-03-12T19:59:36.311Z,3.90
2019-03-12T20:02:15.567Z,3.90
2019-03-12T20:04:47.138Z,3.80
2019-03-12T20:07:10.011Z,3.80
2019-03-12T20:09:41.514Z,3.70
2019-03-12T20:12:20.469Z,3.70
2019-03-12T20:15:08.468Z,3.60
2019-03-12T20:18:01.140Z,3.60
2019-03-12T20:20:59.970Z,3.60
2019-03-12T20:23:31.989Z,3.50
2019-03-12T20:26:24.473Z,3.50
2019-03-12T20:29:28.173Z,3.40
2019-03-12T20:32:21.661Z,3.40
2019-03-12T20:35:13.044Z,3.40
2019-03-12T20:37:53.724Z,3.40
2019-03-12T20:40:50.551Z,3.40
2019-03-12T20:43:39.232Z,3.40
2019-03-12T20:46:35.181Z,3.40
2019-03-12T20:49:41.655Z,3.30
2019-03-12T20:52:30.816Z,3.30
2019-03-12T20:55:32.767Z,3.30
2019-03-12T20:58:20.805Z,3.20
2019-03-12T21:01:04.617Z,3.20
2019-03-12T21:03:57.734Z,3.20
2019-03-12T21:07:02.549Z,3.20
2019-03-12T21:09:59.761Z,3.20
2019-03-12T21:13:06.172Z,3.30
2019-03-12T21:16:10.767Z,3.30
2019-03-12T21:19:11.116Z,3.30
2019-03-12T21:22:16.329Z,3.30
2019-03-12T21:24:55.345Z,3.30
2019-03-12T21:27:52.544Z,3.30
2019-03-12T21:30:24.099Z,3.30
2019-03-12T21:32:55.193Z,3.30
2019-03-12T21:35:23.784Z,3.30
2019-03-12T21:37:52.184Z,3.30
2019-03-12T21:40:20.627Z,3.40
2019-03-12T21:43:03.392Z,3.40
2019-03-12T21:45:41.522Z,3.40
2019-03-12T21:48:12.978Z,3.40
2019-03-12T21:50:44.562Z,3.40
2019-03-12T21:53:19.551Z,3.40
2019-03-12T21:55:48.251Z,3.40
2019-03-12T21:58:16.922Z,3.40
2019-03-12T22:00:51.453Z,3.40
2019-03-12T22:03:19.943Z,3.40
2019-03-12T22:05:52.427Z,3.30
2019-03-12T22:08:21.282Z,3.40
2019-03-12T22:10:52.637Z,3.30
2019-03-12T22:13:27.007Z,3.30
2019-03-12T22:16:00.341Z,3.20
2019-03-12T22:18:28.761Z,3.20
2019-03-12T22:23:36.634Z,3.20
2019-03-12T22:26:05.127Z,3.20
2019-03-12T22:28:37.880Z,3.20
2019-03-12T22:31:09.321Z,3.20
2019-03-12T22:33:39.380Z,3.20
2019-03-12T22:36:10.798Z,3.20
2019-03-12T22:38:41.901Z,3.20
2019-03-12T22:41:15.975Z,3.30
2019-03-12T22:43:44.396Z,3.30
2019-03-12T22:46:14.451Z,3.30
2019-03-12T22:48:49.915Z,3.30
2019-03-12T22:51:18.570Z,3.30
2019-03-12T22:53:51.862Z,3.30
2019-03-12T22:56:25.790Z,3.30
2019-03-12T22:58:54.214Z,3.30
2019-03-12T23:01:24.270Z,3.30
2019-03-12T23:03:54.329Z,3.30
2019-03-12T23:06:24.384Z,3.30
2019-03-12T23:08:53.284Z,3.30
2019-03-12T23:11:24.349Z,3.30
2019-03-12T23:13:54.725Z,3.30
2019-03-12T23:16:25.798Z,3.40
2019-03-12T23:19:03.428Z,3.40
2019-03-12T23:21:34.385Z,3.30
2019-03-12T23:24:03.258Z,3.30
2019-03-12T23:26:31.686Z,3.30
2019-03-12T23:29:02.176Z,3.30
2019-03-12T23:31:30.597Z,3.30
2019-03-12T23:34:01.474Z,3.30
2019-03-12T23:36:32.542Z,3.30
2019-03-12T23:39:01.659Z,3.30
2019-03-12T23:41:30.065Z,3.30
2019-03-12T23:44:01.243Z,3.30
2019-03-12T23:46:31.301Z,3.40
2019-03-12T23:49:04.092Z,3.40
2019-03-12T23:51:32.610Z,3.40
2019-03-12T23:54:04.265Z,3.40
2019-03-12T23:56:32.678Z,3.40
2019-03-12T23:59:06.481Z,3.40
